createdAt,value
2019-04-04T00:02:09.322Z,61.10
2019-04-04T00:04:36.121Z,61.05
2019-04-04T00:07:03.028Z,61.00
2019-04-04T00:09:31.206Z,61.13
2019-04-04T00:11:58.283Z,60.98
2019-04-04T00:14:25.103Z,61.13
2019-04-04T00:16:51.828Z,60.87
2019-04-04T00:19:18.574Z,60.79
2019-04-04T00:21:45.323Z,60.89
2019-04-04T00:24:12.053Z,60.94
2019-04-04T00:26:41.646Z,61.07
2019-04-04T00:29:07.416Z,61.16
2019-04-04T00:31:34.183Z,61.28
2019-04-04T00:34:01.023Z,61.26
2019-04-04T00:36:27.810Z,61.46
2019-04-04T00:38:54.583Z,61.51
2019-04-04T00:41:21.384Z,61.60
2019-04-04T00:43:48.160Z,61.86
2019-04-04T00:46:14.988Z,61.86
2019-04-04T00:48:41.730Z,61.78
2019-04-04T00:51:08.629Z,61.67
2019-04-04T00:53:35.522Z,61.55
2019-04-04T00:56:02.279Z,61.63
2019-04-04T00:58:29.039Z,61.54
2019-04-04T01:00:55.885Z,61.69
2019-04-04T01:03:22.899Z,61.70
2019-04-04T01:05:49.696Z,61.70
2019-04-04T01:08:16.500Z,61.53
2019-04-04T01:11:02.975Z,61.95
2019-04-04T01:13:29.781Z,61.78
2019-04-04T01:15:56.500Z,61.53
2019-04-04T01:18:23.265Z,61.63
2019-04-04T01:20:50.648Z,61.95
2019-04-04T01:23:18.148Z,62.01
2019-04-04T01:25:45.078Z,62.14
2019-04-04T01:28:11.859Z,62.13
2019-04-04T01:30:38.875Z,61.95
2019-04-04T01:33:05.615Z,61.99
2019-04-04T01:35:34.410Z,61.60
2019-04-04T01:38:01.169Z,61.43
2019-04-04T01:40:28.157Z,61.52
2019-04-04T01:42:55.224Z,61.17
2019-04-04T01:45:21.930Z,61.26
2019-04-04T01:47:48.742Z,61.27
2019-04-04T01:50:15.486Z,61.52
2019-04-04T01:52:42.207Z,61.75
2019-04-04T01:55:08.969Z,61.86
2019-04-04T02:00:30.807Z,62.01
2019-04-04T02:02:57.558Z,62.15
2019-04-04T02:05:26.818Z,62.23
2019-04-04T02:07:52.946Z,62.45
2019-04-04T02:10:19.751Z,62.11
2019-04-04T02:12:46.519Z,62.10
2019-04-04T02:15:14.355Z,62.23
2019-04-04T02:17:41.763Z,62.39
2019-04-04T02:20:08.814Z,62.22
2019-04-04T02:22:35.551Z,62.01
2019-04-04T02:25:03.720Z,61.86
2019-04-04T02:27:30.677Z,61.70
2019-04-04T02:29:57.411Z,61.61
2019-04-04T02:32:26.694Z,61.75
2019-04-04T02:34:52.767Z,61.89
2019-04-04T02:37:21.233Z,61.92
2019-04-04T02:39:48.187Z,61.39
2019-04-04T02:42:14.908Z,61.56
2019-04-04T02:44:41.654Z,61.49
2019-04-04T02:47:08.619Z,61.14
2019-04-04T02:49:35.347Z,61.54
2019-04-04T02:52:02.194Z,61.63
2019-04-04T02:54:28.921Z,61.52
2019-04-04T02:56:55.684Z,61.39
2019-04-04T02:59:22.438Z,61.29
2019-04-04T03:01:49.274Z,60.96
2019-04-04T03:04:16.170Z,61.29
2019-04-04T03:06:42.950Z,61.94
2019-04-04T03:09:10.541Z,62.19
2019-04-04T03:11:37.611Z,62.48
2019-04-04T03:14:04.667Z,62.89
2019-04-04T03:16:31.684Z,63.26
2019-04-04T03:18:58.480Z,63.56
2019-04-04T03:21:25.225Z,64.05
2019-04-04T03:23:51.977Z,63.97
2019-04-04T03:26:20.125Z,64.22
2019-04-04T03:28:47.226Z,64.35
2019-04-04T03:31:13.970Z,64.39
2019-04-04T03:33:40.751Z,64.46
2019-04-04T03:36:07.495Z,64.58
2019-04-04T03:38:34.225Z,64.64
2019-04-04T03:41:01.008Z,64.62
2019-04-04T03:43:27.745Z,64.40
2019-04-04T03:45:54.493Z,64.47
2019-04-04T03:48:21.254Z,64.55
2019-04-04T03:50:47.995Z,64.43
2019-04-04T03:53:17.356Z,64.57
2019-04-04T03:55:43.322Z,64.59
2019-04-04T03:58:10.086Z,64.83
2019-04-04T04:00:40.302Z,64.77
2019-04-04T04:03:05.443Z,64.80
2019-04-04T04:05:35.570Z,64.84
2019-04-04T04:08:00.821Z,64.82
2019-04-04T04:10:32.226Z,64.95
2019-04-04T04:12:56.090Z,64.98
2019-04-04T04:15:22.856Z,64.87
2019-04-04T04:17:49.572Z,65.00
2019-04-04T04:20:16.518Z,65.09
2019-04-04T04:22:43.250Z,65.28
2019-04-04T04:25:10.106Z,65.17
2019-04-04T04:27:36.885Z,65.29
2019-04-04T04:30:07.187Z,65.46
2019-04-04T04:32:37.235Z,65.32
2019-04-04T04:35:07.489Z,65.12
2019-04-04T04:37:33.138Z,64.88
2019-04-04T04:40:00.004Z,65.09
2019-04-04T04:42:27.498Z,65.26
2019-04-04T04:44:54.389Z,65.11
2019-04-04T04:47:23.843Z,64.73
2019-04-04T04:49:49.736Z,64.62
2019-04-04T04:52:16.549Z,64.70
2019-04-04T04:54:43.279Z,64.53
2019-04-04T04:57:17.523Z,64.49
2019-04-04T04:59:38.620Z,64.45
2019-04-04T05:02:05.370Z,64.23
2019-04-04T05:04:32.081Z,64.71
2019-04-04T05:06:58.925Z,64.90
2019-04-04T05:09:25.651Z,64.70
2019-04-04T05:11:52.379Z,64.82
2019-04-04T05:14:19.166Z,65.07
2019-04-04T05:16:45.890Z,65.12
2019-04-04T05:19:12.766Z,65.29
2019-04-04T05:21:39.542Z,65.29
2019-04-04T05:24:06.301Z,65.33
2019-04-04T05:26:34.515Z,65.30
2019-04-04T05:29:01.626Z,65.44
2019-04-04T05:31:28.384Z,65.44
2019-04-04T05:33:55.194Z,65.66
2019-04-04T05:36:22.013Z,65.58
2019-04-04T05:38:48.830Z,65.42
2019-04-04T05:41:16.617Z,65.40
2019-04-04T05:43:43.599Z,65.42
2019-04-04T05:46:10.456Z,65.34
2019-04-04T05:48:37.150Z,65.45
2019-04-04T05:51:03.915Z,65.23
2019-04-04T05:53:30.765Z,65.04
2019-04-04T05:55:57.485Z,65.12
2019-04-04T05:58:24.208Z,65.60
2019-04-04T06:00:50.980Z,65.45
2019-04-04T06:03:17.738Z,64.81
2019-04-04T06:05:44.572Z,64.52
2019-04-04T06:08:11.359Z,64.23
2019-04-04T06:10:38.103Z,64.38
2019-04-04T06:13:04.936Z,64.01
2019-04-04T06:15:32.194Z,64.34
2019-04-04T06:17:59.532Z,64.24
2019-04-04T06:20:26.294Z,64.19
2019-04-04T06:22:53.031Z,64.30
2019-04-04T06:25:19.847Z,64.14
2019-04-04T06:27:46.554Z,63.97
2019-04-04T06:30:13.574Z,63.99
2019-04-04T06:32:40.408Z,64.10
2019-04-04T06:35:07.337Z,64.31
2019-04-04T06:37:34.354Z,64.61
2019-04-04T06:40:01.465Z,64.09
2019-04-04T06:42:28.201Z,64.46
2019-04-04T06:44:54.988Z,64.53
2019-04-04T06:47:23.129Z,64.64
2019-04-04T06:49:50.292Z,64.48
2019-04-04T06:52:18.476Z,64.58
2019-04-04T06:54:45.589Z,64.75
2019-04-04T06:57:12.346Z,64.42
2019-04-04T06:59:39.116Z,64.44
2019-04-04T07:02:05.864Z,64.12
2019-04-04T07:04:35.844Z,64.28
2019-04-04T07:07:01.285Z,64.43
2019-04-04T07:09:28.064Z,63.83
2019-04-04T07:11:54.837Z,64.06
2019-04-04T07:14:21.566Z,64.23
2019-04-04T07:16:48.478Z,64.33
2019-04-04T07:19:15.284Z,64.62
2019-04-04T07:21:41.955Z,65.01
2019-04-04T07:24:08.747Z,64.90
2019-04-04T07:26:35.501Z,65.04
2019-04-04T07:29:02.288Z,65.29
2019-04-04T07:31:29.038Z,65.99
2019-04-04T07:33:55.776Z,65.68
2019-04-04T07:36:22.591Z,65.44
2019-04-04T07:38:49.323Z,65.76
2019-04-04T07:41:16.038Z,65.82
2019-04-04T07:43:42.906Z,64.77
2019-04-04T07:46:16.375Z,64.01
2019-04-04T07:48:38.196Z,63.58
2019-04-04T07:51:04.990Z,64.04
2019-04-04T07:53:31.717Z,63.73
2019-04-04T07:55:58.433Z,63.19
2019-04-04T07:58:25.242Z,63.41
2019-04-04T08:00:52.003Z,63.14
2019-04-04T08:03:18.733Z,63.25
2019-04-04T08:05:45.531Z,63.52
2019-04-04T08:08:12.281Z,63.52
2019-04-04T08:10:39.068Z,63.75
2019-04-04T08:13:05.859Z,63.68
2019-04-04T08:15:32.726Z,63.97
2019-04-04T08:17:59.507Z,64.21
2019-04-04T08:20:26.230Z,64.01
2019-04-04T08:22:52.987Z,64.48
2019-04-04T08:25:19.772Z,64.65
2019-04-04T08:27:46.501Z,64.42
2019-04-04T08:30:13.763Z,64.25
2019-04-04T08:32:40.577Z,64.48
2019-04-04T08:35:07.381Z,65.10
2019-04-04T08:37:34.211Z,65.73
2019-04-04T08:40:00.976Z,65.14
2019-04-04T08:42:27.717Z,64.71
2019-04-04T08:44:54.534Z,64.01
2019-04-04T08:47:21.272Z,63.99
2019-04-04T08:49:48.023Z,63.69
2019-04-04T08:52:16.784Z,63.43
2019-04-04T08:54:43.370Z,62.69
2019-04-04T08:57:10.116Z,62.75
2019-04-04T08:59:36.890Z,62.73
2019-04-04T09:02:03.831Z,63.26
2019-04-04T09:04:30.672Z,62.98
2019-04-04T09:06:57.447Z,63.37
2019-04-04T09:09:24.230Z,63.54
2019-04-04T09:11:51.170Z,63.46
2019-04-04T09:14:17.928Z,63.87
2019-04-04T09:16:44.708Z,63.48
2019-04-04T09:19:11.541Z,63.87
2019-04-04T09:21:38.288Z,63.60
2019-04-04T09:24:05.045Z,63.27
2019-04-04T09:26:31.841Z,63.52
2019-04-04T09:28:58.588Z,63.70
2019-04-04T09:31:25.366Z,63.40
2019-04-04T09:33:52.098Z,63.53
2019-04-04T09:36:18.821Z,63.68
2019-04-04T09:38:45.635Z,63.81
2019-04-04T09:41:12.390Z,63.72
2019-04-04T09:43:39.130Z,63.57
2019-04-04T09:46:05.962Z,63.10
2019-04-04T09:48:32.695Z,63.26
2019-04-04T09:50:59.442Z,62.90
2019-04-04T09:53:26.222Z,63.56
2019-04-04T09:55:52.962Z,63.04
2019-04-04T09:58:19.706Z,62.79
2019-04-04T10:00:46.500Z,62.56
2019-04-04T10:03:13.270Z,62.40
2019-04-04T10:05:40.007Z,62.58
2019-04-04T10:08:06.883Z,62.49
2019-04-04T10:10:33.638Z,63.09
2019-04-04T10:13:00.434Z,63.88
2019-04-04T10:15:27.232Z,64.12
2019-04-04T10:17:53.992Z,64.49
2019-04-04T10:20:20.834Z,64.99
2019-04-04T10:22:47.625Z,64.52
2019-04-04T10:25:14.382Z,64.61
2019-04-04T10:27:41.117Z,65.02
2019-04-04T10:30:09.209Z,64.82
2019-04-04T10:32:36.063Z,64.63
2019-04-04T10:35:05.831Z,64.64
2019-04-04T10:37:32.758Z,64.59
2019-04-04T10:39:59.510Z,64.04
2019-04-04T10:42:26.398Z,63.29
2019-04-04T10:44:53.159Z,63.49
2019-04-04T10:47:19.925Z,62.96
2019-04-04T10:49:54.848Z,62.40
2019-04-04T10:52:30.080Z,63.29
2019-04-04T10:54:56.910Z,63.20
2019-04-04T10:57:23.676Z,62.44
2019-04-04T10:59:50.511Z,62.17
2019-04-04T11:02:17.288Z,62.22
2019-04-04T11:04:44.276Z,62.03
2019-04-04T11:07:11.076Z,62.47
2019-04-04T11:09:42.108Z,62.71
2019-04-04T11:12:09.458Z,62.34
2019-04-04T11:14:36.249Z,61.90
2019-04-04T11:17:03.155Z,62.49
2019-04-04T11:19:31.282Z,62.71
2019-04-04T11:21:58.339Z,63.14
2019-04-04T11:24:25.132Z,62.75
2019-04-04T11:26:51.896Z,63.16
2019-04-04T11:29:18.645Z,62.98
2019-04-04T11:31:45.485Z,62.86
2019-04-04T11:34:12.248Z,63.07
2019-04-04T11:36:38.968Z,63.56
2019-04-04T11:39:06.263Z,63.28
2019-04-04T11:41:33.019Z,62.99
2019-04-04T11:43:59.889Z,62.98
2019-04-04T11:46:26.621Z,62.79
2019-04-04T11:48:53.376Z,63.11
2019-04-04T11:51:20.188Z,63.04
2019-04-04T11:53:46.928Z,63.22
2019-04-04T11:56:13.688Z,63.54
2019-04-04T11:58:40.481Z,63.02
2019-04-04T12:01:07.216Z,62.48
2019-04-04T12:03:34.007Z,62.21
2019-04-04T12:06:00.738Z,62.99
2019-04-04T12:08:27.514Z,62.77
2019-04-04T12:10:54.326Z,61.97
2019-04-04T12:13:21.124Z,61.55
2019-04-04T12:15:47.883Z,61.56
2019-04-04T12:18:14.715Z,62.21
2019-04-04T12:20:43.393Z,62.14
2019-04-04T12:23:10.008Z,61.78
2019-04-04T12:25:36.808Z,62.06
2019-04-04T12:28:03.736Z,62.23
2019-04-04T12:30:30.500Z,62.80
2019-04-04T12:32:57.295Z,61.71
2019-04-04T12:35:24.087Z,61.77
2019-04-04T12:37:50.813Z,62.33
2019-04-04T12:40:20.954Z,62.01
2019-04-04T12:42:46.159Z,61.35
2019-04-04T12:45:13.203Z,61.84
2019-04-04T12:47:40.011Z,61.66
2019-04-04T12:50:07.163Z,61.44
2019-04-04T12:52:36.809Z,61.84
2019-04-04T12:55:04.886Z,61.55
2019-04-04T12:57:31.617Z,61.96
2019-04-04T12:59:58.403Z,62.40
2019-04-04T13:02:25.160Z,62.33
2019-04-04T13:04:51.954Z,62.57
2019-04-04T13:07:18.870Z,62.46
2019-04-04T13:09:45.602Z,61.79
2019-04-04T13:12:12.445Z,62.12
2019-04-04T13:14:39.368Z,61.62
2019-04-04T13:17:06.991Z,61.76
2019-04-04T13:19:33.888Z,62.61
2019-04-04T13:22:00.688Z,61.77
2019-04-04T13:24:27.428Z,61.98
2019-04-04T13:26:54.298Z,61.47
2019-04-04T13:29:21.042Z,61.25
2019-04-04T13:31:47.796Z,61.69
2019-04-04T13:34:14.574Z,61.63
2019-04-04T13:36:41.327Z,61.13
2019-04-04T13:39:08.786Z,61.91
2019-04-04T13:41:35.558Z,61.87
2019-04-04T13:44:02.317Z,60.86
2019-04-04T13:46:29.425Z,61.22
2019-04-04T13:48:56.218Z,61.43
2019-04-04T13:51:25.432Z,61.13
2019-04-04T13:53:51.544Z,61.69
2019-04-04T13:56:18.262Z,61.35
2019-04-04T13:58:47.365Z,61.59
2019-04-04T14:01:13.559Z,60.97
2019-04-04T14:03:40.344Z,61.55
2019-04-04T14:06:07.164Z,61.86
2019-04-04T14:08:33.941Z,61.40
2019-04-04T14:11:00.685Z,61.33
2019-04-04T14:13:27.543Z,60.87
2019-04-04T14:15:54.294Z,60.58
2019-04-04T14:18:21.097Z,60.39
2019-04-04T14:20:49.233Z,61.19
2019-04-04T14:23:16.922Z,60.10
2019-04-04T14:25:43.657Z,60.90
2019-04-04T14:28:10.449Z,61.00
2019-04-04T14:30:37.180Z,60.90
2019-04-04T14:33:03.918Z,60.44
2019-04-04T14:35:30.686Z,60.54
2019-04-04T14:37:57.433Z,60.19
2019-04-04T14:40:24.261Z,60.16
2019-04-04T14:42:52.257Z,60.04
2019-04-04T14:45:18.988Z,59.90
2019-04-04T14:47:45.764Z,59.89
2019-04-04T14:50:12.520Z,60.13
2019-04-04T14:52:39.797Z,60.12
2019-04-04T14:55:07.161Z,60.60
2019-04-04T14:57:33.949Z,60.89
2019-04-04T15:00:00.756Z,61.70
2019-04-04T15:02:27.493Z,61.65
2019-04-04T15:04:56.092Z,61.52
2019-04-04T15:07:22.931Z,61.12
2019-04-04T15:09:49.663Z,61.17
2019-04-04T15:12:16.451Z,61.04
2019-04-04T15:14:43.279Z,60.74
2019-04-04T15:17:10.011Z,60.58
2019-04-04T15:19:37.758Z,61.16
2019-04-04T15:22:04.630Z,60.92
2019-04-04T15:24:33.197Z,60.41
2019-04-04T15:26:59.927Z,60.99
2019-04-04T15:29:26.714Z,60.79
2019-04-04T15:31:53.502Z,60.98
2019-04-04T15:34:20.260Z,60.85
2019-04-04T15:36:47.106Z,61.37
2019-04-04T15:39:15.964Z,60.65
2019-04-04T15:41:42.436Z,60.14
2019-04-04T15:44:09.185Z,60.25
2019-04-04T15:46:35.929Z,60.05
2019-04-04T15:49:02.869Z,60.14
2019-04-04T15:51:29.645Z,60.08
2019-04-04T15:53:56.428Z,59.89
2019-04-04T15:56:23.166Z,59.99
2019-04-04T15:58:49.991Z,60.14
2019-04-04T16:01:16.751Z,60.04
2019-04-04T16:03:43.525Z,60.49
2019-04-04T16:06:10.409Z,60.25
2019-04-04T16:08:37.175Z,60.09
2019-04-04T16:11:04.581Z,60.31
2019-04-04T16:13:33.396Z,60.30
2019-04-04T16:16:00.204Z,60.27
2019-04-04T16:18:27.003Z,60.27
2019-04-04T16:20:53.832Z,60.36
2019-04-04T16:23:20.634Z,60.64
2019-04-04T16:25:47.484Z,60.92
2019-04-04T16:28:14.202Z,60.74
2019-04-04T16:30:40.949Z,61.12
2019-04-04T16:33:07.772Z,61.67
2019-04-04T16:35:34.555Z,61.66
2019-04-04T16:38:01.225Z,61.88
2019-04-04T16:40:28.023Z,61.98
2019-04-04T16:42:54.744Z,62.39
2019-04-04T16:45:21.496Z,62.16
2019-04-04T16:47:48.331Z,61.94
2019-04-04T16:50:15.255Z,61.54
2019-04-04T16:52:41.989Z,61.87
2019-04-04T16:55:09.379Z,62.08
2019-04-04T16:57:36.132Z,62.15
2019-04-04T17:00:07.461Z,62.32
2019-04-04T17:02:34.254Z,61.89
2019-04-04T17:05:00.989Z,61.71
2019-04-04T17:07:27.874Z,61.74
2019-04-04T17:09:54.583Z,61.80
2019-04-04T17:12:21.334Z,62.19
2019-04-04T17:14:48.138Z,62.21
2019-04-04T17:17:14.894Z,62.28
2019-04-04T17:19:41.650Z,62.65
2019-04-04T17:22:08.488Z,62.81
2019-04-04T17:24:35.259Z,62.45
2019-04-04T17:27:02.072Z,62.54
2019-04-04T17:29:28.801Z,62.49
2019-04-04T17:31:55.960Z,62.52
2019-04-04T17:34:23.018Z,62.98
2019-04-04T17:36:50.240Z,62.92
2019-04-04T17:39:17.102Z,62.88
2019-04-04T17:41:43.853Z,62.88
2019-04-04T17:44:10.607Z,62.92
2019-04-04T17:46:37.807Z,62.64
2019-04-04T17:49:04.613Z,62.52
2019-04-04T17:51:51.364Z,62.36
2019-04-04T17:54:18.062Z,62.76
2019-04-04T17:56:44.789Z,62.96
2019-04-04T17:59:11.596Z,63.08
2019-04-04T18:01:38.344Z,63.35
2019-04-04T18:04:05.222Z,63.58
2019-04-04T18:06:31.934Z,63.74
2019-04-04T18:08:58.679Z,63.95
2019-04-04T18:11:25.470Z,63.95
2019-04-04T18:13:52.203Z,63.99
2019-04-04T18:16:18.935Z,64.19
2019-04-04T18:18:45.749Z,64.21
2019-04-04T18:21:12.468Z,64.47
2019-04-04T18:23:39.275Z,64.46
2019-04-04T18:26:06.155Z,64.52
2019-04-04T18:28:32.867Z,64.87
2019-04-04T18:30:59.601Z,64.74
2019-04-04T18:33:26.425Z,64.45
2019-04-04T18:35:53.137Z,64.52
2019-04-04T18:38:19.948Z,64.61
2019-04-04T18:40:46.723Z,64.31
2019-04-04T18:43:13.544Z,64.13
2019-04-04T18:45:48.736Z,64.24
2019-04-04T18:48:15.515Z,64.07
2019-04-04T18:50:42.236Z,63.66
2019-04-04T18:53:09.342Z,63.41
2019-04-04T18:55:37.207Z,63.17
2019-04-04T18:58:03.984Z,63.26
2019-04-04T19:00:30.794Z,63.09
2019-04-04T19:02:57.559Z,62.96
2019-04-04T19:05:24.331Z,63.29
2019-04-04T19:07:51.219Z,63.91
2019-04-04T19:10:18.386Z,64.01
2019-04-04T19:12:45.119Z,63.91
2019-04-04T19:15:13.323Z,63.83
2019-04-04T19:17:40.060Z,63.66
2019-04-04T19:20:09.948Z,63.84
2019-04-04T19:22:36.800Z,64.00
2019-04-04T19:25:08.011Z,63.71
2019-04-04T19:27:34.791Z,63.37
2019-04-04T19:30:02.120Z,63.26
2019-04-04T19:32:28.855Z,63.50
2019-04-04T19:34:55.637Z,63.63
2019-04-04T19:37:22.428Z,63.26
2019-04-04T19:39:49.201Z,63.64
2019-04-04T19:42:16.090Z,63.63
2019-04-04T19:44:52.629Z,63.88
2019-04-04T19:47:11.342Z,63.94
2019-04-04T19:49:38.168Z,64.02
2019-04-04T19:52:04.893Z,64.12
2019-04-04T19:54:31.658Z,63.96
2019-04-04T19:56:58.551Z,64.17
2019-04-04T19:59:25.515Z,64.29
2019-04-04T20:01:52.250Z,64.21
2019-04-04T20:04:19.049Z,64.10
2019-04-04T20:06:45.821Z,64.32
2019-04-04T20:09:12.754Z,64.12
2019-04-04T20:11:39.536Z,64.23
2019-04-04T20:14:06.282Z,64.17
2019-04-04T20:16:33.131Z,64.19
2019-04-04T20:18:59.853Z,64.06
2019-04-04T20:21:26.577Z,64.26
2019-04-04T20:23:53.559Z,64.64
2019-04-04T20:26:20.709Z,64.68
2019-04-04T20:28:47.485Z,64.59
2019-04-04T20:31:14.309Z,64.46
2019-04-04T20:33:41.059Z,64.52
2019-04-04T20:36:07.815Z,64.32
2019-04-04T20:38:34.655Z,64.69
2019-04-04T20:41:01.387Z,64.59
2019-04-04T20:43:28.160Z,64.71
2019-04-04T20:45:54.981Z,64.81
2019-04-04T20:48:21.707Z,64.78
2019-04-04T20:50:48.538Z,64.68
2019-04-04T20:53:15.295Z,64.45
2019-04-04T20:55:44.269Z,64.57
2019-04-04T20:58:11.078Z,64.69
2019-04-04T21:00:37.881Z,64.95
2019-04-04T21:03:04.651Z,65.09
2019-04-04T21:05:31.418Z,65.22
2019-04-04T21:07:58.156Z,65.01
2019-04-04T21:10:25.128Z,64.97
2019-04-04T21:12:51.889Z,65.06
2019-04-04T21:15:18.657Z,65.05
2019-04-04T21:17:45.486Z,65.09
2019-04-04T21:20:12.410Z,65.10
2019-04-04T21:22:39.179Z,64.98
2019-04-04T21:25:06.041Z,64.87
2019-04-04T21:27:32.804Z,64.81
2019-04-04T21:29:59.644Z,64.93
2019-04-04T21:32:26.395Z,64.96
2019-04-04T21:34:53.165Z,65.04
2019-04-04T21:37:19.974Z,65.10
2019-04-04T21:39:46.693Z,65.15
2019-04-04T21:42:13.420Z,65.00
2019-04-04T21:44:40.252Z,64.94
2019-04-04T21:47:07.015Z,65.07
2019-04-04T21:49:33.767Z,65.11
2019-04-04T21:52:00.575Z,65.13
2019-04-04T21:54:27.368Z,65.24
2019-04-04T21:56:54.135Z,65.28
2019-04-04T21:59:20.949Z,65.24
2019-04-04T22:01:47.672Z,65.10
2019-04-04T22:04:14.395Z,65.10
2019-04-04T22:06:41.242Z,65.22
2019-04-04T22:09:09.878Z,65.32
2019-04-04T22:11:36.655Z,65.46
2019-04-04T22:14:04.347Z,65.58
2019-04-04T22:16:31.070Z,65.62
2019-04-04T22:18:57.937Z,65.54
2019-04-04T22:21:25.067Z,65.36
2019-04-04T22:23:51.801Z,65.51
2019-04-04T22:26:18.617Z,65.59
2019-04-04T22:28:45.338Z,65.67
2019-04-04T22:31:12.138Z,65.74
2019-04-04T22:33:39.000Z,65.78
2019-04-04T22:36:05.729Z,65.80
2019-04-04T22:38:32.454Z,65.86
2019-04-04T22:40:59.253Z,65.98
2019-04-04T22:43:25.992Z,65.76
2019-04-04T22:45:52.736Z,65.63
2019-04-04T22:48:19.620Z,65.70
2019-04-04T22:50:46.343Z,65.65
2019-04-04T22:53:13.080Z,65.83
2019-04-04T22:55:39.852Z,65.87
2019-04-04T22:58:06.582Z,65.89
2019-04-04T23:00:33.387Z,65.81
2019-04-04T23:03:00.119Z,65.69
2019-04-04T23:05:26.858Z,65.85
2019-04-04T23:07:53.719Z,65.77
2019-04-04T23:10:20.450Z,65.69
2019-04-04T23:12:47.160Z,65.56
2019-04-04T23:15:14.033Z,65.61
2019-04-04T23:17:40.769Z,65.78
2019-04-04T23:20:08.187Z,65.90
2019-04-04T23:22:34.961Z,65.99
2019-04-04T23:25:01.984Z,66.00
2019-04-04T23:27:28.863Z,65.78
2019-04-04T23:29:55.631Z,65.87
2019-04-04T23:32:22.356Z,66.00
2019-04-04T23:34:49.096Z,65.96
2019-04-04T23:37:15.881Z,65.97
2019-04-04T23:39:42.625Z,65.91
2019-04-04T23:42:09.362Z,65.86
2019-04-04T23:44:36.134Z,65.85
2019-04-04T23:47:02.863Z,65.92
2019-04-04T23:49:29.584Z,65.91
2019-04-04T23:51:56.348Z,65.98
2019-04-04T23:54:23.067Z,66.13
2019-04-04T23:56:49.866Z,66.00
2019-04-04T23:59:16.599Z,65.94
